Airfield :
LOGIN :

Register | Disclaimer

   EN    FR    IT 

 










Legend :    VFR   Marginal VFR   IFR   Intensive IFR   Very Intensive IFR
Visi :
Ceiling :
>= 8 km
>= 3000ft
5 to 8 km
1000 to 3000 ft
1500m to 5 km
500 to 1000 ft
800 to 1500m
200 to 500 ft
< 800m
< 200 ft
Symbols :   Thunderstorms  Fog  Heavy snow  Heavy precipitations  Wind > 20 kt
SIGMETs :     Misc.  Thunderstorms  Icing  Turbulence  Mountain Waves  Volcanic Ashes






- Airport Elevation : 70 ft
- IATA code : LEI


LEAM - Almeria

CURRENT METAR :
  • 282130Z 23004KT 190V260 CAVOK 13/06 Q1020

EXPIRED METARs :
  • 282100Z VRB02KT CAVOK 12/05 Q1020
  • 282030Z 00000KT CAVOK 12/05 Q1020
  • 282000Z 26004KT 240V320 CAVOK 13/05 Q1020
  • 281930Z 24004KT CAVOK 13/06 Q1020
  • 281900Z 23006KT CAVOK 14/06 Q1020
  • 281830Z 22005KT CAVOK 14/06 Q1020
  • 281800Z 20005KT 180V240 CAVOK 15/05 Q1019
  • 281730Z 19006KT 140V210 CAVOK 15/04 Q1019
  • 281700Z 19007KT 160V230 CAVOK 16/04 Q1019

TAF TAF LEAM
Valid from the 28 at 18:00 until the 29 at 18:00 UTC


281700Z 2818/2918 22012KT CAVOK TX20/2914Z TN11/2906Z
BECMG 2820/2822 33008KT



MET'MAP, your aeronautical weather chart ! - Copyright ORBIFLY December 2007 - Disclaimer

ORBIFLY MET'MAP TEAM :

Programming & Development : Alexandra Zaïnal
Original concept : Baudouin d'Aumeries
Technical & hardware support : Manuel Goepfert
Assistance : Marc-Olivier Méhu




SOURCES & CREDITS :

   NOAA